LIMF/TRN METAR and TAF weather

Enter ICAO airport designator
Station Type Date Time Source
LIMF METAR 2019/05/25 15:20 UTC NOAA

LIMF 251520Z 02008KT 9999 SCT060 BKN110 19/13 Q1014


Station Type Date Time Source
LIMF Decoded METAR 2019/05/25 15:20 UTC NOAA

Torino / Caselle, Italy (LIMF) 45-13N 007-39E 287M
May 25, 2019 - 11:20 AM EDT / 2019.05.25 1520 UTC
Wind: from the NNE (020 degrees) at 9 MPH (8 KT):0
Visibility: greater than 7 mile(s):0
Sky conditions: mostly cloudy
Temperature: 66 F (19 C)
Dew Point: 55 F (13 C)
Relative Humidity: 68%
Pressure (altimeter): 29.94 in. Hg (1014 hPa)
ob: LIMF 251520Z 02008KT 9999 SCT060 BKN110 19/13 Q1014
cycle: 15

Station Type Date Time Source
LIMF TAF 2019/05/25 12:21 UTC NOAA

TAF LIMF 251100Z 2512/2612 VRB05KT 9999 SCT040
TEMPO 2512/2603 3000 TSRA
TEMPO 2603/2612 4000 RA BKN012 BKN040

Example: see airport list